createdAt,value
2019-03-22T00:00:03.351Z,92.8
2019-03-22T00:01:03.283Z,91.7
2019-03-22T00:02:02.921Z,90.7
2019-03-22T00:03:03.268Z,91.2
2019-03-22T00:04:03.274Z,90.3
2019-03-22T00:05:02.968Z,90.3
2019-03-22T00:06:03.040Z,90.3
2019-03-22T00:07:03.017Z,90.5
2019-03-22T00:08:03.365Z,91
2019-03-22T00:09:03.037Z,90.7
2019-03-22T00:10:02.896Z,92.8
2019-03-22T00:11:02.806Z,91.9
2019-03-22T00:12:04.681Z,91.7
2019-03-22T00:13:03.525Z,93.5
2019-03-22T00:14:03.208Z,93.3
2019-03-22T00:15:03.475Z,93.1
2019-03-22T00:16:03.192Z,93.3
2019-03-22T00:17:03.126Z,91.9
2019-03-22T00:18:02.972Z,90.7
2019-03-22T00:19:03.344Z,91
2019-03-22T00:20:03.048Z,91.7
2019-03-22T00:21:03.160Z,88.9
2019-03-22T00:22:03.045Z,89.8
2019-03-22T00:23:03.094Z,90
2019-03-22T00:24:03.115Z,90.5
2019-03-22T00:25:03.173Z,90.5
2019-03-22T00:26:03.116Z,90.5
2019-03-22T00:27:17.062Z,90.5
2019-03-22T00:28:03.099Z,91.7
2019-03-22T00:29:04.027Z,90.5
2019-03-22T00:30:04.306Z,90.5
2019-03-22T00:31:03.851Z,91.7
2019-03-22T00:32:02.950Z,93.1
2019-03-22T00:33:03.041Z,93.5
2019-03-22T00:34:02.848Z,93.5
2019-03-22T00:35:02.986Z,92.8
2019-03-22T00:36:02.989Z,93.8
2019-03-22T00:37:03.701Z,93.3
2019-03-22T00:38:03.707Z,91.9
2019-03-22T00:39:02.841Z,93.5
2019-03-22T00:40:03.725Z,90
2019-03-22T00:41:02.732Z,91.4
2019-03-22T00:42:03.717Z,91.4
2019-03-22T00:43:02.876Z,92.1
2019-03-22T00:44:03.014Z,92.1
2019-03-22T00:45:03.316Z,92.4
2019-03-22T00:46:02.909Z,90.5
2019-03-22T00:47:03.296Z,91.2
2019-03-22T00:48:03.080Z,89.6
2019-03-22T00:49:03.222Z,89.8
2019-03-22T00:50:02.941Z,88.2
2019-03-22T00:51:02.757Z,89.3
2019-03-22T00:52:03.091Z,87.9
2019-03-22T00:53:02.768Z,89.1
2019-03-22T00:54:04.208Z,87
2019-03-22T00:55:03.110Z,87.7
2019-03-22T00:56:03.452Z,86.3
2019-03-22T00:57:03.338Z,86.3
2019-03-22T00:58:03.001Z,86.8
2019-03-22T00:59:03.357Z,86.3
2019-03-22T01:00:03.740Z,86.5
2019-03-22T01:01:03.188Z,86.3
2019-03-22T01:02:03.408Z,86.5
2019-03-22T01:03:03.015Z,87
2019-03-22T01:04:03.205Z,87.2
2019-03-22T01:05:03.312Z,87.7
2019-03-22T01:06:03.013Z,86.5
2019-03-22T01:07:02.957Z,86.5
2019-03-22T01:08:02.948Z,88.2
2019-03-22T01:09:03.219Z,87.2
2019-03-22T01:10:03.032Z,89.3
2019-03-22T01:11:03.229Z,89.1
2019-03-22T01:12:03.213Z,88.4
2019-03-22T01:13:03.156Z,89.6
2019-03-22T01:14:03.141Z,90
2019-03-22T01:15:03.990Z,89.1
2019-03-22T01:16:03.001Z,91
2019-03-22T01:17:03.071Z,89.3
2019-03-22T01:18:03.772Z,90.3
2019-03-22T01:19:03.955Z,90.7
2019-03-22T01:20:03.027Z,90.7
2019-03-22T01:21:03.899Z,91.2
2019-03-22T01:22:03.831Z,89.1
2019-03-22T01:23:03.862Z,90.5
2019-03-22T01:24:03.729Z,89.3
2019-03-22T01:25:03.787Z,88.2
2019-03-22T01:26:03.916Z,88.6
2019-03-22T01:27:03.556Z,89.6
2019-03-22T01:28:03.780Z,87.7
2019-03-22T01:29:04.310Z,88.2
2019-03-22T01:30:03.468Z,87
2019-03-22T01:31:03.858Z,86.8
2019-03-22T01:32:03.504Z,87
2019-03-22T01:33:03.486Z,87.9
2019-03-22T01:34:03.482Z,88.4
2019-03-22T01:35:03.785Z,87.5
2019-03-22T01:36:03.840Z,88.2
2019-03-22T01:37:03.649Z,88.6
2019-03-22T01:38:03.714Z,88.2
2019-03-22T01:39:03.534Z,89.8
2019-03-22T01:40:03.767Z,88.9
2019-03-22T01:41:03.831Z,90.7
2019-03-22T01:42:03.446Z,89.3
2019-03-22T01:43:03.194Z,91
2019-03-22T01:44:03.555Z,90.3
2019-03-22T01:45:03.566Z,90.5
2019-03-22T01:46:02.149Z,88.4
2019-03-22T01:47:03.408Z,91.2
2019-03-22T01:48:03.206Z,91.4
2019-03-22T01:49:03.500Z,92.1
2019-03-22T01:50:03.433Z,91
2019-03-22T01:51:03.585Z,91.7
2019-03-22T01:52:03.527Z,91.4
2019-03-22T01:53:03.495Z,92.4
2019-03-22T01:54:03.429Z,91.7
2019-03-22T01:55:02.871Z,93.3
2019-03-22T01:56:03.325Z,93.1
2019-03-22T01:57:03.113Z,93.1
2019-03-22T01:58:03.443Z,92.8
2019-03-22T01:59:03.047Z,92.6
2019-03-22T02:00:03.495Z,93.5
2019-03-22T02:01:03.207Z,91.4
2019-03-22T02:02:03.462Z,92.8
2019-03-22T02:03:03.134Z,90.3
2019-03-22T02:04:03.110Z,91.4
2019-03-22T02:05:02.920Z,90.5
2019-03-22T02:06:03.008Z,90.5
2019-03-22T02:07:03.205Z,89.8
2019-03-22T02:08:03.079Z,89.8
2019-03-22T02:09:03.235Z,87.7
2019-03-22T02:10:03.104Z,88.6
2019-03-22T02:11:03.130Z,87.7
2019-03-22T02:12:02.831Z,87.7
2019-03-22T02:13:03.483Z,86.8
2019-03-22T02:14:03.013Z,85.8
2019-03-22T02:15:03.822Z,84.4
2019-03-22T02:16:02.963Z,84.4
2019-03-22T02:17:03.770Z,84.9
2019-03-22T02:18:02.775Z,84.4
2019-03-22T02:19:03.612Z,85.6
2019-03-22T02:20:04.020Z,86.1
2019-03-22T02:21:03.633Z,86.5
2019-03-22T02:22:03.164Z,86.1
2019-03-22T02:23:03.594Z,86.3
2019-03-22T02:24:02.965Z,86.3
2019-03-22T02:25:03.106Z,87.2
2019-03-22T02:26:03.117Z,86.1
2019-03-22T02:27:03.717Z,88.2
2019-03-22T02:28:04.822Z,87
2019-03-22T02:29:02.993Z,87.2
2019-03-22T02:30:03.774Z,86.8
2019-03-22T02:31:03.893Z,86.3
2019-03-22T02:32:03.898Z,84.9
2019-03-22T02:33:02.662Z,85.4
2019-03-22T02:34:03.605Z,85.4
2019-03-22T02:35:02.888Z,84.7
2019-03-22T02:36:03.546Z,87.7
2019-03-22T02:37:03.867Z,85.4
2019-03-22T02:38:03.804Z,86.8
2019-03-22T02:39:03.850Z,88.4
2019-03-22T02:40:03.577Z,87.2
2019-03-22T02:41:03.594Z,88.9
2019-03-22T02:42:03.891Z,88.2
2019-03-22T02:43:03.858Z,88.9
2019-03-22T02:44:03.914Z,89.3
2019-03-22T02:45:04.144Z,89.8
2019-03-22T02:46:02.562Z,88.2
2019-03-22T02:47:03.795Z,88.4
2019-03-22T02:48:03.636Z,88.9
2019-03-22T02:49:03.937Z,87.9
2019-03-22T02:50:20.739Z,88.2
2019-03-22T02:51:03.833Z,91
2019-03-22T02:52:03.794Z,89.3
2019-03-22T02:53:03.841Z,91.2
2019-03-22T02:54:03.588Z,88.9
2019-03-22T02:55:03.079Z,88.9
2019-03-22T02:56:04.174Z,88.6
2019-03-22T02:57:03.561Z,89.1
2019-03-22T02:58:21.660Z,88.6
2019-03-22T02:59:03.478Z,90.3
2019-03-22T03:00:03.709Z,91
2019-03-22T03:01:03.623Z,90.3
2019-03-22T03:02:03.757Z,90.7
2019-03-22T03:03:03.664Z,89.8
2019-03-22T03:04:03.661Z,90.3
2019-03-22T03:05:03.472Z,91.7
2019-03-22T03:06:03.602Z,91.9
2019-03-22T03:07:03.824Z,91.7
2019-03-22T03:08:03.367Z,91.4
2019-03-22T03:09:03.482Z,90.5
2019-03-22T03:10:03.912Z,90.3
2019-03-22T03:11:03.659Z,90.5
2019-03-22T03:12:03.766Z,92.1
2019-03-22T03:13:03.630Z,91.4
2019-03-22T03:14:03.606Z,92.6
2019-03-22T03:15:03.609Z,94.7
2019-03-22T03:16:03.708Z,92.1
2019-03-22T03:17:03.684Z,94.2
2019-03-22T03:18:03.600Z,93.5
2019-03-22T03:19:03.118Z,92.4
2019-03-22T03:20:03.469Z,93.3
2019-03-22T03:21:03.442Z,96.1
2019-03-22T03:22:03.845Z,95.4
2019-03-22T03:23:03.623Z,94.7
2019-03-22T03:24:03.833Z,95.6
2019-03-22T03:25:03.527Z,96.3
2019-03-22T03:26:03.516Z,94.5
2019-03-22T03:27:03.580Z,94.9
2019-03-22T03:28:03.754Z,95.4
2019-03-22T03:29:03.613Z,94.9
2019-03-22T03:30:03.668Z,95.4
2019-03-22T03:31:03.678Z,96.3
2019-03-22T03:32:03.076Z,96.3
2019-03-22T03:33:03.349Z,95.6
2019-03-22T03:34:03.403Z,97.3
2019-03-22T03:35:03.898Z,95.9
2019-03-22T03:36:03.609Z,95.9
2019-03-22T03:37:03.597Z,95.6
2019-03-22T03:38:03.087Z,94.5
2019-03-22T03:39:03.824Z,95.2
2019-03-22T03:40:03.317Z,94.7
2019-03-22T03:41:03.163Z,93.8
2019-03-22T03:42:03.256Z,95.6
2019-03-22T03:43:03.345Z,94.2
2019-03-22T03:44:03.524Z,96.3
2019-03-22T03:45:03.067Z,98
2019-03-22T03:46:03.309Z,97.5
2019-03-22T03:47:03.192Z,97.5
2019-03-22T03:48:03.189Z,98.7
2019-03-22T03:49:03.097Z,96.3
2019-03-22T03:50:03.234Z,97
2019-03-22T03:51:03.042Z,96.6
2019-03-22T03:52:03.231Z,96.3
2019-03-22T03:53:02.882Z,96.3
2019-03-22T03:54:02.963Z,98.2
2019-03-22T03:55:03.021Z,99.1
2019-03-22T03:56:03.953Z,98.9
2019-03-22T03:57:03.836Z,100.3
2019-03-22T03:58:03.889Z,100.5
2019-03-22T03:59:03.024Z,100.3
2019-03-22T04:00:03.821Z,100.5
2019-03-22T04:01:03.213Z,100.8
2019-03-22T04:02:03.636Z,99.8
2019-03-22T04:03:03.252Z,100.1
2019-03-22T04:04:03.761Z,101
2019-03-22T04:05:02.996Z,100.1
2019-03-22T04:06:04.069Z,100.1
2019-03-22T04:07:03.687Z,100.3
2019-03-22T04:08:03.837Z,99.8
2019-03-22T04:09:03.567Z,100.3
2019-03-22T04:10:02.967Z,99.6
2019-03-22T04:11:03.819Z,99.6
2019-03-22T04:12:02.983Z,99.1
2019-03-22T04:13:04.037Z,98.2
2019-03-22T04:14:03.806Z,98
2019-03-22T04:15:03.845Z,98.7
2019-03-22T04:16:03.828Z,96.8
2019-03-22T04:17:03.575Z,99.1
2019-03-22T04:18:03.649Z,97.7
2019-03-22T04:19:03.768Z,97.5
2019-03-22T04:20:03.688Z,96.8
2019-03-22T04:21:03.324Z,97.7
2019-03-22T04:22:03.317Z,96.3
2019-03-22T04:23:03.700Z,94.7
2019-03-22T04:24:03.481Z,96.6
2019-03-22T04:25:03.695Z,96.1
2019-03-22T04:26:03.603Z,97.3
2019-03-22T04:27:03.267Z,96.1
2019-03-22T04:28:03.400Z,96.8
2019-03-22T04:29:09.121Z,96.3
2019-03-22T04:30:03.466Z,95.6
2019-03-22T04:31:02.988Z,96.6
2019-03-22T04:32:03.393Z,96.1
2019-03-22T04:33:07.505Z,95.9
2019-03-22T04:34:03.669Z,95.6
2019-03-22T04:35:03.239Z,95.6
2019-03-22T04:36:03.468Z,95.4
2019-03-22T04:37:03.505Z,95.2
2019-03-22T04:38:03.637Z,95.2
2019-03-22T04:39:03.523Z,93.3
2019-03-22T04:40:03.565Z,93.1
2019-03-22T04:41:03.284Z,92.8
2019-03-22T04:42:03.462Z,91.2
2019-03-22T04:43:03.527Z,90.3
2019-03-22T04:44:03.345Z,89.8
2019-03-22T04:45:03.342Z,90
2019-03-22T04:46:03.203Z,90.5
2019-03-22T04:47:03.330Z,89.1
2019-03-22T04:48:03.021Z,90.3
2019-03-22T04:49:03.474Z,89.6
2019-03-22T04:50:03.377Z,90
2019-03-22T04:51:03.611Z,90.7
2019-03-22T04:52:03.344Z,88.6
2019-03-22T04:53:03.311Z,89.8
2019-03-22T04:54:03.351Z,88.9
2019-03-22T04:55:03.445Z,89.6
2019-03-22T04:56:03.358Z,87.7
2019-03-22T04:57:02.985Z,88.9
2019-03-22T04:58:03.351Z,88.4
2019-03-22T04:59:03.134Z,88.4
2019-03-22T05:00:03.526Z,88.2
2019-03-22T05:01:03.208Z,89.8
2019-03-22T05:02:03.503Z,87.9
2019-03-22T05:03:03.213Z,89.8
2019-03-22T05:04:03.207Z,90
2019-03-22T05:05:03.374Z,89.6
2019-03-22T05:06:03.222Z,89.1
2019-03-22T05:07:03.265Z,90
2019-03-22T05:08:03.286Z,90.3
2019-03-22T05:09:03.310Z,91.9
2019-03-22T05:10:03.185Z,90
2019-03-22T05:11:03.281Z,89.8
2019-03-22T05:12:03.224Z,89.1
2019-03-22T05:13:03.279Z,91.4
2019-03-22T05:14:03.176Z,91.9
2019-03-22T05:15:02.993Z,91.7
2019-03-22T05:16:03.019Z,91.4
2019-03-22T05:17:03.121Z,91.4
2019-03-22T05:18:03.078Z,91.9
2019-03-22T05:19:03.126Z,90.5
2019-03-22T05:20:03.435Z,92.6
2019-03-22T05:21:03.167Z,91.9
2019-03-22T05:22:03.226Z,91.4
2019-03-22T05:23:03.057Z,91.4
2019-03-22T05:24:03.273Z,91.2
2019-03-22T05:25:03.799Z,93.3
2019-03-22T05:26:03.268Z,91
2019-03-22T05:27:03.058Z,93.3
2019-03-22T05:28:02.817Z,91.9
2019-03-22T05:29:02.792Z,92.4
2019-03-22T05:30:03.631Z,91.4
2019-03-22T05:31:03.685Z,91.7
2019-03-22T05:32:02.862Z,91.7
2019-03-22T05:33:03.027Z,91
2019-03-22T05:34:03.141Z,92.1
2019-03-22T05:35:03.871Z,92.1
2019-03-22T05:36:03.554Z,92.4
2019-03-22T05:37:03.769Z,92.6
2019-03-22T05:38:03.729Z,94
2019-03-22T05:39:03.872Z,92.1
2019-03-22T05:40:03.365Z,94.9
2019-03-22T05:41:03.786Z,94.5
2019-03-22T05:42:03.708Z,93.5
2019-03-22T05:43:03.827Z,94
2019-03-22T05:44:02.668Z,93.8
2019-03-22T05:45:04.129Z,95.6
2019-03-22T05:46:03.718Z,94.5
2019-03-22T05:47:03.628Z,95.4
2019-03-22T05:48:03.602Z,94
2019-03-22T05:49:03.548Z,95.9
2019-03-22T05:50:03.686Z,94.9
2019-03-22T05:51:03.502Z,94.9
2019-03-22T05:52:03.519Z,95.6
2019-03-22T05:53:03.666Z,95.4
2019-03-22T05:54:03.089Z,96.3
2019-03-22T05:55:03.683Z,94.9
2019-03-22T05:56:03.506Z,95.2
2019-03-22T05:57:14.279Z,94.7
2019-03-22T05:58:03.593Z,93.8
2019-03-22T05:59:03.800Z,94.2
2019-03-22T06:00:03.625Z,93.8
2019-03-22T06:01:03.697Z,94.2
2019-03-22T06:02:03.695Z,92.8
2019-03-22T06:03:03.778Z,92.8
2019-03-22T06:04:03.505Z,93.5
2019-03-22T06:05:03.606Z,92.8
2019-03-22T06:06:03.687Z,92.8
2019-03-22T06:07:03.220Z,94
2019-03-22T06:08:03.682Z,94
2019-03-22T06:09:03.369Z,94.7
2019-03-22T06:10:03.862Z,94.9
2019-03-22T06:11:03.320Z,94.9
2019-03-22T06:12:03.616Z,95.2
2019-03-22T06:13:03.511Z,96.1
2019-03-22T06:14:03.551Z,95.2
2019-03-22T06:15:03.639Z,94.2
2019-03-22T06:16:03.514Z,93.5
2019-03-22T06:17:03.522Z,94.2
2019-03-22T06:18:03.476Z,93.8
2019-03-22T06:19:03.719Z,93.3
2019-03-22T06:20:03.519Z,92.4
2019-03-22T06:21:03.343Z,92.1
2019-03-22T06:22:03.606Z,91.9
2019-03-22T06:23:03.604Z,91.4
2019-03-22T06:24:03.182Z,92.8
2019-03-22T06:25:03.363Z,92.1
2019-03-22T06:26:03.578Z,91.9
2019-03-22T06:27:03.388Z,91.9
2019-03-22T06:28:03.592Z,91.2
2019-03-22T06:29:03.054Z,91.4
2019-03-22T06:30:03.350Z,92.8
2019-03-22T06:31:03.382Z,92.6
2019-03-22T06:32:03.181Z,93.8
2019-03-22T06:33:03.950Z,91.7
2019-03-22T06:34:03.610Z,92.1
2019-03-22T06:35:03.430Z,91.9
2019-03-22T06:36:03.365Z,91
2019-03-22T06:37:03.365Z,90.7
2019-03-22T06:38:03.301Z,90.7
2019-03-22T06:39:03.220Z,89.1
2019-03-22T06:40:03.561Z,90
2019-03-22T06:41:03.375Z,90.3
2019-03-22T06:42:03.576Z,88.4
2019-03-22T06:43:03.259Z,91.9
2019-03-22T06:44:03.389Z,90.7
2019-03-22T06:45:03.528Z,90.5
2019-03-22T06:46:03.252Z,90
2019-03-22T06:47:03.482Z,90.7
2019-03-22T06:48:03.090Z,90.3
2019-03-22T06:49:03.297Z,90.5
2019-03-22T06:50:03.326Z,90
2019-03-22T06:51:03.142Z,90.3
2019-03-22T06:52:02.821Z,90.7
2019-03-22T06:53:02.990Z,89.6
2019-03-22T06:54:03.117Z,90.5
2019-03-22T06:55:03.042Z,90.5
2019-03-22T06:56:03.029Z,90.3
2019-03-22T06:57:03.041Z,89.3
2019-03-22T06:58:03.253Z,89.6
2019-03-22T06:59:03.195Z,88.9
2019-03-22T07:00:07.734Z,88.9
2019-03-22T07:01:03.036Z,89.8
2019-03-22T07:02:03.478Z,88.6
2019-03-22T07:03:03.214Z,89.6
2019-03-22T07:04:03.314Z,88.9
2019-03-22T07:05:03.519Z,88.9
2019-03-22T07:06:03.078Z,89.3
2019-03-22T07:07:03.198Z,89.1
2019-03-22T07:08:03.159Z,88.2
2019-03-22T07:09:03.150Z,86.1
2019-03-22T07:10:03.119Z,86.5
2019-03-22T07:11:03.467Z,86.5
2019-03-22T07:12:03.016Z,86.1
2019-03-22T07:13:03.220Z,88.2
2019-03-22T07:14:03.156Z,86.3
2019-03-22T07:15:03.003Z,87.7
2019-03-22T07:16:03.498Z,87.2
2019-03-22T07:17:03.168Z,88.4
2019-03-22T07:18:03.025Z,87
2019-03-22T07:19:02.777Z,87.9
2019-03-22T07:20:03.240Z,89.1
2019-03-22T07:21:02.960Z,88.9
2019-03-22T07:22:03.194Z,88.6
2019-03-22T07:23:02.896Z,88.6
2019-03-22T07:24:03.437Z,87
2019-03-22T07:25:03.168Z,86.5
2019-03-22T07:26:03.078Z,87.5
2019-03-22T07:27:03.110Z,86.5
2019-03-22T07:28:02.922Z,86.3
2019-03-22T07:29:03.194Z,86.3
2019-03-22T07:30:03.979Z,86.5
2019-03-22T07:31:03.093Z,87.7
2019-03-22T07:32:03.141Z,87.9
2019-03-22T07:33:03.101Z,87.5
2019-03-22T07:34:02.888Z,87.2
2019-03-22T07:35:03.503Z,86.8
2019-03-22T07:36:02.849Z,86.1
2019-03-22T07:37:04.060Z,86.8
2019-03-22T07:38:03.012Z,87.2
2019-03-22T07:39:02.780Z,87.7
2019-03-22T07:40:03.032Z,86.8
2019-03-22T07:41:02.951Z,85.1
2019-03-22T07:42:03.008Z,86.1
2019-03-22T07:43:02.991Z,86.5
2019-03-22T07:44:03.652Z,85.6
2019-03-22T07:45:03.738Z,85.4
2019-03-22T07:46:03.810Z,85.6
2019-03-22T07:47:03.848Z,85.8
2019-03-22T07:48:03.068Z,84
2019-03-22T07:49:03.642Z,83.7
2019-03-22T07:50:03.862Z,83.7
2019-03-22T07:51:03.855Z,84.9
2019-03-22T07:52:03.608Z,85.1
2019-03-22T07:53:03.891Z,84.2
2019-03-22T07:54:04.099Z,84.9
2019-03-22T07:55:03.813Z,84
2019-03-22T07:56:03.439Z,83.7
2019-03-22T07:57:03.592Z,84.9
2019-03-22T07:58:03.419Z,84
2019-03-22T07:59:03.648Z,85.8
2019-03-22T08:00:03.427Z,87
2019-03-22T08:01:03.355Z,87
2019-03-22T08:02:03.756Z,88.6
2019-03-22T08:03:03.497Z,87.7
2019-03-22T08:04:03.251Z,88.2
2019-03-22T08:05:03.361Z,88.9
2019-03-22T08:06:03.510Z,87.5
2019-03-22T08:07:03.426Z,89.8
2019-03-22T08:08:03.805Z,88.9
2019-03-22T08:09:03.122Z,90
2019-03-22T08:10:03.384Z,90
2019-03-22T08:11:03.189Z,90.5
2019-03-22T08:12:03.057Z,89.1
2019-03-22T08:13:03.395Z,91
2019-03-22T08:14:03.630Z,90
2019-03-22T08:15:03.127Z,90.5
2019-03-22T08:16:03.295Z,90
2019-03-22T08:17:03.374Z,92.1
2019-03-22T08:18:02.916Z,91.2
2019-03-22T08:19:03.414Z,92.6
2019-03-22T08:20:03.278Z,92.4
2019-03-22T08:21:03.222Z,92.1
2019-03-22T08:22:03.173Z,92.8
2019-03-22T08:23:03.223Z,92.1
2019-03-22T08:24:03.167Z,92.4
2019-03-22T08:25:03.334Z,91.7
2019-03-22T08:26:03.007Z,91.2
2019-03-22T08:27:03.149Z,92.4
2019-03-22T08:28:02.998Z,91.4
2019-03-22T08:29:03.171Z,92.4
2019-03-22T08:30:03.715Z,90.7
2019-03-22T08:31:05.952Z,90.7
2019-03-22T08:32:03.073Z,91.2
2019-03-22T08:33:03.224Z,91.2
2019-03-22T08:34:03.289Z,91.2
2019-03-22T08:35:03.861Z,91.7
2019-03-22T08:36:02.993Z,91.2
2019-03-22T08:37:03.043Z,93.8
2019-03-22T08:38:02.953Z,93.3
2019-03-22T08:39:03.641Z,93.5
2019-03-22T08:40:03.148Z,93.1
2019-03-22T08:41:03.079Z,93.5
2019-03-22T08:42:03.138Z,93.3
2019-03-22T08:43:03.930Z,94.2
2019-03-22T08:44:04.138Z,93.5
2019-03-22T08:45:03.015Z,94.2
2019-03-22T08:46:03.959Z,96.6
2019-03-22T08:47:03.562Z,95.6
2019-03-22T08:48:03.969Z,96.3
2019-03-22T08:49:04.281Z,95.6
2019-03-22T08:50:03.844Z,95.9
2019-03-22T08:51:03.753Z,95.4
2019-03-22T08:52:03.715Z,95.6
2019-03-22T08:53:03.634Z,93.8
2019-03-22T08:54:03.745Z,95.4
2019-03-22T08:55:03.057Z,96.1
2019-03-22T08:56:03.685Z,97.5
2019-03-22T08:57:04.059Z,95.9
2019-03-22T08:58:03.750Z,95.9
2019-03-22T08:59:03.880Z,97
2019-03-22T09:00:03.910Z,97.3
2019-03-22T09:01:03.805Z,95.9
2019-03-22T09:02:03.731Z,95.4
2019-03-22T09:03:03.369Z,96.1
2019-03-22T09:04:03.679Z,95.4
2019-03-22T09:05:03.846Z,95.6
2019-03-22T09:06:03.575Z,94
2019-03-22T09:07:03.419Z,94
2019-03-22T09:08:03.928Z,95.6
2019-03-22T09:09:03.536Z,93.8
2019-03-22T09:10:03.785Z,96.3
2019-03-22T09:11:03.799Z,94.2
2019-03-22T09:12:03.833Z,93.5
2019-03-22T09:13:03.622Z,93.8
2019-03-22T09:14:03.649Z,94
2019-03-22T09:15:03.645Z,94
2019-03-22T09:16:03.742Z,94.2
2019-03-22T09:17:03.560Z,93.3
2019-03-22T09:18:03.529Z,94.9
2019-03-22T09:19:03.288Z,93.8
2019-03-22T09:20:03.530Z,93.5
2019-03-22T09:21:03.302Z,93.8
2019-03-22T09:22:03.163Z,95.6
2019-03-22T09:23:03.565Z,96.8
2019-03-22T09:24:03.391Z,98.9
2019-03-22T09:25:03.621Z,99.4
2019-03-22T09:26:03.754Z,99.6
2019-03-22T09:27:03.672Z,99.8
2019-03-22T09:28:03.291Z,98
2019-03-22T09:29:03.392Z,98.9
2019-03-22T09:30:03.555Z,98
2019-03-22T09:31:12.355Z,100.1
2019-03-22T09:32:03.557Z,102.2
2019-03-22T09:33:03.402Z,101.2
2019-03-22T09:34:03.517Z,102.2
2019-03-22T09:35:03.315Z,101.7
2019-03-22T09:36:03.561Z,102.2
2019-03-22T09:37:03.529Z,101.5
2019-03-22T09:38:13.819Z,101.2
2019-03-22T09:39:03.491Z,101.9
2019-03-22T09:40:03.223Z,103.8
2019-03-22T09:41:03.647Z,102.6
2019-03-22T09:42:03.272Z,103.8
2019-03-22T09:43:03.488Z,103.6
2019-03-22T09:44:03.619Z,102.2
2019-03-22T09:45:03.591Z,101.2
2019-03-22T09:46:03.497Z,102.4
2019-03-22T09:47:03.547Z,101
2019-03-22T09:48:06.695Z,101.2
2019-03-22T09:49:03.569Z,103.1
2019-03-22T09:50:03.227Z,103.1
2019-03-22T09:51:03.074Z,103.3
2019-03-22T09:52:03.418Z,102.2
2019-03-22T09:53:03.461Z,102.4
2019-03-22T09:54:03.366Z,103.3
2019-03-22T09:55:14.934Z,102.6
2019-03-22T09:56:03.477Z,100.3
2019-03-22T09:57:03.428Z,99.6
2019-03-22T09:58:03.540Z,101
2019-03-22T09:59:03.554Z,102.2
2019-03-22T10:00:03.618Z,101.2
2019-03-22T10:01:02.247Z,102.2
2019-03-22T10:02:04.767Z,102.2
2019-03-22T10:03:03.293Z,101.2
2019-03-22T10:04:03.003Z,101.2
2019-03-22T10:05:03.485Z,101.2
2019-03-22T10:06:03.716Z,102.2
2019-03-22T10:07:03.280Z,101.9
2019-03-22T10:08:03.417Z,101.9
2019-03-22T10:09:06.077Z,101.2
2019-03-22T10:10:03.269Z,102.4
2019-03-22T10:11:03.686Z,100.3
2019-03-22T10:12:03.428Z,101.5
2019-03-22T10:13:03.632Z,100.8
2019-03-22T10:14:02.961Z,100.5
2019-03-22T10:15:03.592Z,100.5
2019-03-22T10:16:03.823Z,100.5
2019-03-22T10:17:03.537Z,101
2019-03-22T10:18:03.231Z,101
2019-03-22T10:19:04.077Z,100.8
2019-03-22T10:20:02.895Z,102.2
2019-03-22T10:21:03.368Z,102.2
2019-03-22T10:22:03.317Z,102.2
2019-03-22T10:23:03.236Z,98.7
2019-03-22T10:24:03.614Z,98.7
2019-03-22T10:25:03.159Z,96.6
2019-03-22T10:26:03.299Z,97.5
2019-03-22T10:27:05.809Z,97.5
2019-03-22T10:28:03.270Z,96.6
2019-03-22T10:29:03.285Z,95.6
2019-03-22T10:30:03.407Z,94.9
2019-03-22T10:31:03.125Z,94.9
2019-03-22T10:32:03.745Z,93.1
2019-03-22T10:33:03.119Z,92.8
2019-03-22T10:34:04.069Z,91.7
2019-03-22T10:35:03.386Z,92.6
2019-03-22T10:36:03.053Z,92.6
2019-03-22T10:37:03.008Z,91.2
2019-03-22T10:38:31.629Z,91.2
2019-03-22T10:39:03.844Z,92.1
2019-03-22T10:40:03.132Z,91.4
2019-03-22T10:41:03.585Z,91.4
2019-03-22T10:42:03.974Z,91.2
2019-03-22T10:43:03.279Z,91
2019-03-22T10:44:03.687Z,90.3
2019-03-22T10:45:03.502Z,91
2019-03-22T10:46:03.223Z,91.4
2019-03-22T10:47:03.332Z,89.6
2019-03-22T10:48:03.277Z,89.6
2019-03-22T10:49:03.054Z,89.6
2019-03-22T10:50:03.946Z,88.9
2019-03-22T10:51:03.609Z,86.5
2019-03-22T10:52:05.113Z,87.9
2019-03-22T10:53:03.260Z,87.9
2019-03-22T10:54:03.946Z,88.2
2019-03-22T10:55:31.014Z,86.8
2019-03-22T10:56:03.046Z,87.5
2019-03-22T10:57:03.617Z,88.2
2019-03-22T10:58:03.181Z,89.3
2019-03-22T10:59:03.336Z,87.5
2019-03-22T11:00:03.068Z,87.5
2019-03-22T11:01:02.950Z,86.5
2019-03-22T11:02:08.188Z,86.5
2019-03-22T11:03:03.139Z,86.5
2019-03-22T11:05:03.145Z,84.9
2019-03-22T11:06:03.859Z,84.9
2019-03-22T11:07:02.964Z,85.1
2019-03-22T11:08:03.238Z,84
2019-03-22T11:09:03.482Z,84
2019-03-22T11:10:03.168Z,84
2019-03-22T11:11:03.611Z,85.1
2019-03-22T11:12:12.944Z,83.3
2019-03-22T11:13:03.296Z,84
2019-03-22T11:14:03.061Z,85.1
2019-03-22T11:15:02.871Z,84.2
2019-03-22T11:16:03.510Z,84.9
2019-03-22T11:17:03.569Z,84.7
2019-03-22T11:18:03.521Z,84.2
2019-03-22T11:19:03.273Z,84.2
2019-03-22T11:20:03.829Z,83.7
2019-03-22T11:21:05.972Z,84
2019-03-22T11:22:02.938Z,83.7
2019-03-22T11:23:02.948Z,85.1
2019-03-22T11:24:03.692Z,86.3
2019-03-22T11:25:05.154Z,84.2
2019-03-22T11:26:04.841Z,87.2
2019-03-22T11:27:03.606Z,87.5
2019-03-22T11:28:03.762Z,87
2019-03-22T11:29:03.829Z,87.2
2019-03-22T11:30:03.769Z,88.4
2019-03-22T11:31:05.423Z,89.1
2019-03-22T11:32:13.235Z,90
2019-03-22T11:33:03.554Z,87.5
2019-03-22T11:34:03.326Z,90.3
2019-03-22T11:35:03.493Z,89.1
2019-03-22T11:36:03.466Z,90
2019-03-22T11:37:03.493Z,89.1
2019-03-22T11:38:03.291Z,91.2
2019-03-22T11:39:03.615Z,91
2019-03-22T11:40:03.460Z,90.5
2019-03-22T11:41:03.382Z,89.8
2019-03-22T11:42:03.064Z,89.8
2019-03-22T11:43:09.330Z,89.8
2019-03-22T11:44:03.693Z,91.2
2019-03-22T11:45:03.748Z,89.6
2019-03-22T11:46:03.310Z,91.2
2019-03-22T11:47:03.350Z,90
2019-03-22T11:48:03.332Z,89.6
2019-03-22T11:49:03.490Z,89.8
2019-03-22T11:50:03.529Z,90
2019-03-22T11:51:03.398Z,92.1
2019-03-22T11:52:03.178Z,92.6
2019-03-22T11:53:03.137Z,91.7
2019-03-22T11:54:03.123Z,91.9
2019-03-22T11:55:02.937Z,92.1
2019-03-22T11:56:03.262Z,93.5
2019-03-22T11:57:02.927Z,93.5
2019-03-22T11:58:03.321Z,91.7
2019-03-22T11:59:03.189Z,91.7
2019-03-22T12:00:03.612Z,91
2019-03-22T12:01:03.093Z,91.7
2019-03-22T12:02:03.376Z,93.1
2019-03-22T12:03:03.282Z,94
2019-03-22T12:04:03.361Z,95.9
2019-03-22T12:05:03.431Z,95.6
2019-03-22T12:06:03.002Z,95.4
2019-03-22T12:07:03.089Z,96.3
2019-03-22T12:08:03.034Z,98.4
2019-03-22T12:09:03.002Z,99.6
2019-03-22T12:10:03.110Z,99.6
2019-03-22T12:11:03.429Z,99.4
2019-03-22T12:12:03.345Z,100.8
2019-03-22T12:13:03.108Z,99.8
2019-03-22T12:14:03.153Z,99.4
2019-03-22T12:15:03.370Z,100.3
2019-03-22T12:16:03.145Z,101.2
2019-03-22T12:17:02.959Z,101.7
2019-03-22T12:18:03.810Z,100.8
2019-03-22T12:19:03.085Z,100.8
2019-03-22T12:20:03.012Z,99.1
2019-03-22T12:21:03.086Z,99.1
2019-03-22T12:22:03.049Z,99.8
2019-03-22T12:23:02.922Z,99.8
2019-03-22T12:24:02.988Z,98.9
2019-03-22T12:25:04.022Z,101.2
2019-03-22T12:26:03.602Z,99.1
2019-03-22T12:27:03.007Z,99.4
2019-03-22T12:28:03.225Z,100.3
2019-03-22T12:29:02.965Z,99.8
2019-03-22T12:30:03.110Z,99.6
2019-03-22T12:31:02.978Z,99.4
2019-03-22T12:32:03.322Z,97.5
2019-03-22T12:33:03.097Z,99.4
2019-03-22T12:34:04.505Z,99.1
2019-03-22T12:35:03.131Z,99.8
2019-03-22T12:36:03.027Z,99.6
2019-03-22T12:37:03.915Z,99.6
2019-03-22T12:38:02.923Z,99.8
2019-03-22T12:39:02.954Z,99.6
2019-03-22T12:40:03.973Z,100.8
2019-03-22T12:41:02.818Z,99.8
2019-03-22T12:42:03.157Z,101
2019-03-22T12:43:03.378Z,101.9
2019-03-22T12:44:03.141Z,101
2019-03-22T12:45:03.164Z,101.9
2019-03-22T12:46:03.407Z,102.6
2019-03-22T12:47:03.054Z,102.2
2019-03-22T12:48:03.096Z,104
2019-03-22T12:49:03.336Z,104.3
2019-03-22T12:50:02.858Z,104.5
2019-03-22T12:51:02.971Z,104.5
2019-03-22T12:52:03.132Z,105.4
2019-03-22T12:53:02.774Z,105.7
2019-03-22T12:54:03.082Z,105.4
2019-03-22T12:55:03.665Z,105.2
2019-03-22T12:56:03.232Z,105.9
2019-03-22T12:57:03.860Z,104.5
2019-03-22T12:58:03.089Z,103.3
2019-03-22T12:59:03.293Z,104
2019-03-22T13:00:03.054Z,105.4
2019-03-22T13:01:03.031Z,105.2
2019-03-22T13:02:03.186Z,104.3
2019-03-22T13:03:02.856Z,103.3
2019-03-22T13:04:02.910Z,101.9
2019-03-22T13:05:02.878Z,103.6
2019-03-22T13:06:02.863Z,104.3
2019-03-22T13:07:02.916Z,104.5
2019-03-22T13:08:03.612Z,103.6
2019-03-22T13:09:03.151Z,102.4
2019-03-22T13:10:03.888Z,103.3
2019-03-22T13:11:03.815Z,103.6
2019-03-22T13:12:03.740Z,102.2
2019-03-22T13:13:03.122Z,101.9
2019-03-22T13:14:03.756Z,102.6
2019-03-22T13:15:02.970Z,101.2
2019-03-22T13:16:03.270Z,100.8
2019-03-22T13:17:03.527Z,100.3
2019-03-22T13:18:03.218Z,100.1
2019-03-22T13:19:03.372Z,101.9
2019-03-22T13:20:03.322Z,102.4